createdAt,value
2023-10-07T00:01:29.639Z,13.39
2023-10-07T00:06:36.150Z,13.30
2023-10-07T00:11:38.899Z,13.23
2023-10-07T00:16:41.610Z,13.17
2023-10-07T00:22:09.754Z,13.11
2023-10-07T00:27:39.278Z,13.01
2023-10-07T00:32:41.861Z,12.95
2023-10-07T00:37:45.733Z,12.92
2023-10-07T00:42:51.257Z,12.91
2023-10-07T00:47:54.646Z,12.92
2023-10-07T00:52:59.089Z,12.93
2023-10-07T00:58:07.943Z,12.93
2023-10-07T01:03:11.333Z,12.93
2023-10-07T01:08:14.572Z,12.94
2023-10-07T01:13:31.001Z,12.93
2023-10-07T01:18:40.188Z,12.95
2023-10-07T01:23:46.292Z,12.97
2023-10-07T01:28:51.022Z,12.99
2023-10-07T01:33:54.942Z,13.02
2023-10-07T01:39:02.668Z,13.04
2023-10-07T01:44:09.614Z,13.04
2023-10-07T01:49:13.280Z,13.03
2023-10-07T01:54:16.539Z,13.03
2023-10-07T01:59:19.545Z,13.04
2023-10-07T02:04:28.435Z,13.05
2023-10-07T02:09:36.659Z,13.04
2023-10-07T02:14:40.231Z,13.02
2023-10-07T02:19:45.256Z,13.02
2023-10-07T02:24:54.414Z,13.01
2023-10-07T02:29:58.838Z,13.00
2023-10-07T02:35:03.241Z,12.99
2023-10-07T02:40:26.218Z,13.00
2023-10-07T02:45:31.602Z,13.04
2023-10-07T02:50:34.175Z,13.08
2023-10-07T02:55:48.316Z,13.15
2023-10-07T03:00:53.280Z,13.16
2023-10-07T03:05:59.926Z,13.17
2023-10-07T03:11:05.642Z,13.15
2023-10-07T03:16:24.330Z,13.11
2023-10-07T03:21:36.850Z,13.08
2023-10-07T03:26:42.185Z,13.06
2023-10-07T03:31:47.745Z,13.04
2023-10-07T03:37:10.215Z,13.02
2023-10-07T03:42:16.161Z,12.98
2023-10-07T03:47:19.635Z,12.94
2023-10-07T03:52:22.569Z,12.88
2023-10-07T03:57:26.264Z,12.84
2023-10-07T04:02:29.871Z,12.81
2023-10-07T04:07:34.823Z,12.79
2023-10-07T04:12:39.043Z,12.77
2023-10-07T04:17:44.829Z,12.76
2023-10-07T04:23:02.735Z,12.74
2023-10-07T04:28:08.277Z,12.76
2023-10-07T04:33:12.158Z,12.77
2023-10-07T04:38:41.414Z,12.78
2023-10-07T04:43:46.611Z,12.79
2023-10-07T04:48:56.294Z,12.79
2023-10-07T04:54:05.148Z,12.82
2023-10-07T04:59:08.378Z,12.84
2023-10-07T05:04:17.272Z,12.87
2023-10-07T05:09:20.185Z,12.88
2023-10-07T05:14:25.989Z,12.91
2023-10-07T05:19:29.171Z,12.93
2023-10-07T05:24:31.740Z,12.94
2023-10-07T05:29:34.485Z,12.93
2023-10-07T05:34:37.667Z,12.93
2023-10-07T05:39:43.430Z,12.92
2023-10-07T05:44:45.846Z,12.92
2023-10-07T05:49:48.705Z,12.91
2023-10-07T05:54:54.347Z,12.89
2023-10-07T05:59:58.007Z,12.88
2023-10-07T06:05:00.632Z,12.87
2023-10-07T06:10:03.755Z,12.87
2023-10-07T06:15:09.953Z,12.88
2023-10-07T06:20:16.126Z,12.90
2023-10-07T06:25:18.601Z,12.91
2023-10-07T06:30:21.976Z,12.93
2023-10-07T06:35:26.380Z,12.99
2023-10-07T06:40:31.677Z,13.06
2023-10-07T06:45:37.575Z,13.12
2023-10-07T06:50:46.453Z,13.16
2023-10-07T06:55:56.121Z,13.20
2023-10-07T07:01:10.789Z,13.26
2023-10-07T07:06:21.511Z,13.31
2023-10-07T07:11:24.825Z,13.34
2023-10-07T07:16:27.424Z,13.36
2023-10-07T07:21:30.563Z,13.41
2023-10-07T07:26:33.050Z,13.52
2023-10-07T07:31:36.149Z,13.67
2023-10-07T07:36:38.617Z,13.87
2023-10-07T07:41:57.113Z,13.99
2023-10-07T07:47:04.950Z,14.13
2023-10-07T07:52:09.911Z,14.31
2023-10-07T07:57:13.747Z,14.43
2023-10-07T08:02:18.466Z,14.47
2023-10-07T08:07:29.265Z,14.43
2023-10-07T08:12:35.427Z,14.41
2023-10-07T08:17:38.551Z,14.45
2023-10-07T08:22:47.032Z,14.58
2023-10-07T08:27:51.237Z,14.80
2023-10-07T08:32:54.070Z,15.02
2023-10-07T08:37:57.768Z,15.15
2023-10-07T08:43:00.530Z,15.19
2023-10-07T08:48:16.748Z,15.22
2023-10-07T08:53:24.995Z,15.29
2023-10-07T08:58:34.164Z,15.38
2023-10-07T09:03:43.056Z,15.45
2023-10-07T09:08:46.406Z,15.52
2023-10-07T09:13:49.651Z,15.63
2023-10-07T09:18:57.474Z,15.76
2023-10-07T09:24:04.417Z,15.89
2023-10-07T09:29:16.773Z,16.05
2023-10-07T09:34:32.512Z,16.33
2023-10-07T09:39:35.915Z,16.59
2023-10-07T09:44:40.471Z,16.70
2023-10-07T09:49:45.864Z,16.76
2023-10-07T09:55:39.608Z,17.15
2023-10-07T10:01:30.018Z,17.40
2023-10-07T10:07:13.751Z,17.62
2023-10-07T10:12:29.190Z,17.99
2023-10-07T10:17:50.077Z,18.65
2023-10-07T10:22:54.184Z,18.93
2023-10-07T10:28:04.578Z,18.65
2023-10-07T10:33:22.200Z,18.45
2023-10-07T10:38:42.352Z,18.45
2023-10-07T10:43:44.958Z,18.44
2023-10-07T10:48:48.448Z,18.45
2023-10-07T10:53:51.822Z,18.47
2023-10-07T10:58:55.441Z,18.40
2023-10-07T11:03:58.423Z,18.45
2023-10-07T11:09:04.977Z,18.41
2023-10-07T11:14:11.529Z,18.54
2023-10-07T11:19:16.984Z,18.77
2023-10-07T11:24:28.376Z,18.85
2023-10-07T11:29:33.928Z,18.65
2023-10-07T11:34:47.095Z,18.52
2023-10-07T11:39:50.297Z,18.60
2023-10-07T11:44:57.363Z,18.67
2023-10-07T11:50:02.112Z,18.73
2023-10-07T11:55:09.046Z,18.74
2023-10-07T12:00:24.623Z,18.78
2023-10-07T12:05:31.408Z,18.86
2023-10-07T12:10:35.225Z,18.91
2023-10-07T12:15:49.316Z,18.93
2023-10-07T12:21:03.959Z,18.87
2023-10-07T12:26:16.833Z,18.77
2023-10-07T12:31:21.906Z,18.70
2023-10-07T12:36:24.504Z,18.68
2023-10-07T12:41:29.241Z,18.66
2023-10-07T12:46:32.495Z,18.62
2023-10-07T12:51:35.647Z,18.50
2023-10-07T12:56:47.765Z,18.28
2023-10-07T13:01:52.948Z,18.11
2023-10-07T13:07:04.674Z,18.14
2023-10-07T13:12:16.505Z,18.28
2023-10-07T13:17:22.001Z,18.32
2023-10-07T13:22:25.183Z,18.44
2023-10-07T13:27:27.888Z,18.53
2023-10-07T13:32:31.286Z,18.53
2023-10-07T13:37:34.043Z,18.73
2023-10-07T13:42:36.979Z,18.95
2023-10-07T13:47:39.526Z,18.87
2023-10-07T13:52:59.936Z,18.77
2023-10-07T13:58:04.005Z,18.61
2023-10-07T14:03:18.105Z,18.49
2023-10-07T14:08:22.108Z,18.34
2023-10-07T14:13:26.374Z,18.17
2023-10-07T14:18:29.564Z,17.99
2023-10-07T14:23:34.775Z,17.87
2023-10-07T14:28:40.833Z,17.77
2023-10-07T14:33:43.546Z,17.71
2023-10-07T14:38:46.842Z,17.65
2023-10-07T14:43:49.571Z,17.57
2023-10-07T14:48:52.209Z,17.46
2023-10-07T14:53:55.339Z,17.33
2023-10-07T14:58:58.788Z,17.20
2023-10-07T15:04:04.525Z,17.07
2023-10-07T15:09:09.585Z,16.97
2023-10-07T15:14:13.442Z,16.89
2023-10-07T15:19:20.380Z,16.79
2023-10-07T15:24:22.822Z,16.74
2023-10-07T15:29:29.914Z,16.69
2023-10-07T15:34:32.534Z,16.61
2023-10-07T15:39:36.178Z,16.52
2023-10-07T15:44:39.975Z,16.46
2023-10-07T15:49:46.103Z,16.39
2023-10-07T15:54:48.638Z,16.34
2023-10-07T15:59:52.942Z,16.28
2023-10-07T16:04:55.526Z,16.21
2023-10-07T16:10:01.965Z,16.17
2023-10-07T16:15:09.601Z,16.11
2023-10-07T16:20:12.386Z,16.06
2023-10-07T16:25:16.207Z,16.01
2023-10-07T16:30:19.585Z,15.98
2023-10-07T16:35:22.081Z,15.92
2023-10-07T16:40:25.075Z,15.83
2023-10-07T16:45:28.189Z,15.77
2023-10-07T16:50:33.173Z,15.71
2023-10-07T16:55:37.528Z,15.68
2023-10-07T17:00:42.390Z,15.65
2023-10-07T17:05:44.959Z,15.59
2023-10-07T17:10:50.217Z,15.55
2023-10-07T17:15:54.443Z,15.50
2023-10-07T17:21:00.933Z,15.42
2023-10-07T17:26:07.323Z,15.35
2023-10-07T17:31:12.603Z,15.28
2023-10-07T17:36:15.404Z,15.23
2023-10-07T17:41:22.205Z,15.18
2023-10-07T17:46:29.371Z,15.09
2023-10-07T17:51:46.404Z,14.99
2023-10-07T17:56:56.722Z,14.89
2023-10-07T18:02:02.293Z,14.83
2023-10-07T18:07:11.250Z,14.78
2023-10-07T18:12:16.594Z,14.73
2023-10-07T18:17:19.690Z,14.65
2023-10-07T18:22:22.221Z,14.57
2023-10-07T18:27:24.972Z,14.51
2023-10-07T18:32:27.699Z,14.49
2023-10-07T18:37:30.621Z,14.42
2023-10-07T18:42:34.272Z,14.35
2023-10-07T18:47:37.795Z,14.31
2023-10-07T18:52:40.362Z,14.26
2023-10-07T18:57:44.734Z,14.19
2023-10-07T19:02:47.461Z,14.16
2023-10-07T19:07:50.491Z,14.11
2023-10-07T19:12:53.118Z,14.08
2023-10-07T19:17:56.125Z,14.05
2023-10-07T19:22:59.962Z,14.01
2023-10-07T19:28:02.524Z,13.96
2023-10-07T19:33:05.680Z,13.87
2023-10-07T19:38:09.443Z,13.81
2023-10-07T19:43:37.969Z,13.72
2023-10-07T19:48:40.551Z,13.67
2023-10-07T19:53:45.492Z,13.54
2023-10-07T19:58:48.179Z,13.45
2023-10-07T20:03:55.338Z,13.33
2023-10-07T20:09:00.478Z,13.23
2023-10-07T20:14:03.781Z,13.11
2023-10-07T20:19:12.444Z,13.03
2023-10-07T20:24:15.603Z,12.98
2023-10-07T20:29:18.623Z,13.01
2023-10-07T20:34:38.287Z,12.99
2023-10-07T20:39:44.043Z,12.98
2023-10-07T20:44:47.321Z,12.92
2023-10-07T20:49:53.091Z,12.91
2023-10-07T20:55:01.644Z,12.93
2023-10-07T21:00:06.378Z,12.97
2023-10-07T21:05:09.185Z,12.94
2023-10-07T21:10:15.370Z,12.89
2023-10-07T21:15:18.135Z,12.84
2023-10-07T21:20:24.421Z,12.79
2023-10-07T21:25:27.162Z,12.72
2023-10-07T21:30:30.263Z,12.67
2023-10-07T21:35:33.884Z,12.63
2023-10-07T21:40:40.969Z,12.54
2023-10-07T21:45:43.805Z,12.49
2023-10-07T21:50:46.958Z,12.46
2023-10-07T21:55:50.186Z,12.40
2023-10-07T22:00:59.064Z,12.34
2023-10-07T22:06:02.894Z,12.23
2023-10-07T22:11:06.121Z,12.13
2023-10-07T22:16:09.741Z,12.05
2023-10-07T22:21:13.375Z,11.96
2023-10-07T22:26:20.837Z,11.93
2023-10-07T22:31:24.306Z,11.87
2023-10-07T22:36:32.982Z,11.84
2023-10-07T22:41:39.768Z,11.77
2023-10-07T22:46:43.738Z,11.72
2023-10-07T22:51:48.997Z,11.67
2023-10-07T22:56:51.618Z,11.61
2023-10-07T23:01:59.797Z,11.54
2023-10-07T23:07:13.727Z,11.48
2023-10-07T23:12:25.226Z,11.45
2023-10-07T23:17:32.883Z,11.42
2023-10-07T23:22:42.008Z,11.34
2023-10-07T23:27:45.900Z,11.26
2023-10-07T23:32:49.662Z,11.20
2023-10-07T23:38:19.999Z,11.18
2023-10-07T23:43:26.403Z,11.17
2023-10-07T23:48:29.757Z,11.14
2023-10-07T23:53:33.387Z,11.07
2023-10-07T23:58:52.972Z,11.05
